Wetterdaten: Woche 06.03.23 - 12.03.23 (KW10)
Datum Zeit Temp. A. Feuchte A. Luftdruck Regen Wind Richtung Taupunkt Windchill
06.03.2023 16:00 3,3 C 80 % 1008 hPa 0,0 l/m 0,0 km/h (0 Bft) W-NW 0,2 C 3,3 C
06.03.2023 17:00 2,4 C 82 % 1008 hPa 0,0 l/m 0,0 km/h (0 Bft) W-NW -0,3 C 2,4 C
06.03.2023 18:00 1,4 C 85 % 1008 hPa 0,0 l/m 0,0 km/h (0 Bft) W-NW -1,0 C 1,4 C
06.03.2023 19:00 0,9 C 86 % 1008 hPa 0,0 l/m 0,0 km/h (0 Bft) W-NW -1,3 C 0,9 C
06.03.2023 20:00 0,5 C 86 % 1008 hPa 0,0 l/m 0,0 km/h (0 Bft) W-NW -1,5 C 0,5 C
06.03.2023 21:00 0,3 C 87 % 1008 hPa 0,0 l/m 0,0 km/h (0 Bft) SW -1,6 C 0,3 C
06.03.2023 22:00 0,2 C 87 % 1008 hPa 0,0 l/m 0,0 km/h (0 Bft) SW -1,7 C 0,2 C
06.03.2023 23:00 -0,0 C 87 % 1007 hPa 0,0 l/m 0,0 km/h (0 Bft) W-SW -1,9 C -0,0 C
07.03.2023 00:00 -0,1 C 87 % 1006 hPa 0,0 l/m 0,0 km/h (0 Bft) W -2,0 C -0,1 C
07.03.2023 01:00 -0,1 C 88 % 1006 hPa 0,0 l/m 0,0 km/h (0 Bft) W-SW -1,9 C -0,1 C
07.03.2023 02:00 -0,1 C 88 % 1005 hPa 0,0 l/m 0,0 km/h (0 Bft) SW -1,8 C -0,1 C
07.03.2023 03:00 0,3 C 87 % 1004 hPa 0,0 l/m 1,9 km/h (1 Bft) SW -1,6 C 0,3 C
07.03.2023 04:00 0,9 C 85 % 1003 hPa 0,0 l/m 0,0 km/h (0 Bft) W-SW -1,4 C 0,9 C
07.03.2023 05:00 1,2 C 83 % 1003 hPa 0,0 l/m 0,2 km/h (0 Bft) W-SW -1,4 C 1,2 C
07.03.2023 06:00 1,5 C 83 % 1002 hPa 0,0 l/m 1,5 km/h (1 Bft) W -1,1 C 1,1 C
07.03.2023 07:00 1,7 C 84 % 1002 hPa 0,0 l/m 4,0 km/h (1 Bft) W-SW -0,8 C 0,5 C
07.03.2023 08:00 2,4 C 83 % 1002 hPa 0,0 l/m 1,6 km/h (1 Bft) W -0,2 C 1,9 C
07.03.2023 09:00 3,4 C 82 % 1002 hPa 0,0 l/m 0,0 km/h (0 Bft) W-SW 0,6 C 3,4 C
07.03.2023 10:00 4,4 C 79 % 1002 hPa 0,0 l/m 2,0 km/h (1 Bft) W-SW 1,1 C 4,4 C
07.03.2023 11:00 5,7 C 75 % 1001 hPa 0,0 l/m 3,8 km/h (1 Bft) W 1,6 C 4,6 C
07.03.2023 12:00 7,0 C 70 % 1001 hPa 0,0 l/m 4,1 km/h (1 Bft) W 2,0 C 6,7 C
07.03.2023 13:00 7,0 C 67 % 1000 hPa 0,0 l/m 5,2 km/h (1 Bft) S 1,3 C 5,6 C
07.03.2023 14:00 7,1 C 67 % 1000 hPa 0,0 l/m 4,3 km/h (1 Bft) W 1,3 C 6,0 C
07.03.2023 15:00 6,3 C 68 % 1000 hPa 0,0 l/m 3,9 km/h (1 Bft) W-SW 0,9 C 5,5 C
07.03.2023 16:00 5,7 C 69 % 1000 hPa 0,0 l/m 0,0 km/h (0 Bft) S-SW 0,4 C 5,7 C
07.03.2023 17:00 5,3 C 69 % 1000 hPa 0,0 l/m 2,3 km/h (1 Bft) W-NW 0,1 C 5,0 C
07.03.2023 18:00 3,1 C 77 % 1001 hPa 0,0 l/m 0,7 km/h (0 Bft) NW -0,5 C 3,1 C
07.03.2023 19:00 1,1 C 83 % 1002 hPa 0,0 l/m 0,0 km/h (0 Bft) NW -1,4 C 1,1 C
07.03.2023 20:00 0,3 C 85 % 1002 hPa 0,0 l/m 0,0 km/h (0 Bft) NW -2,0 C 0,3 C
07.03.2023 21:00 0,1 C 86 % 1002 hPa 0,0 l/m 0,0 km/h (0 Bft) NW -2,0 C 0,1 C
07.03.2023 22:00 0,1 C 87 % 1003 hPa 0,0 l/m 0,0 km/h (0 Bft) NW -1,9 C 0,1 C
07.03.2023 23:00 0,1 C 88 % 1004 hPa 0,0 l/m 0,0 km/h (0 Bft) NW -1,7 C 0,1 C
08.03.2023 00:00 0,1 C 89 % 1004 hPa 0,0 l/m 0,0 km/h (0 Bft) NW -1,6 C 0,1 C
08.03.2023 01:00 0,1 C 89 % 1004 hPa 0,0 l/m 0,0 km/h (0 Bft) NW -1,5 C 0,1 C
08.03.2023 02:00 0,1 C 89 % 1004 hPa 0,0 l/m 0,0 km/h (0 Bft) NW -1,5 C 0,1 C
08.03.2023 03:00 -0,0 C 90 % 1004 hPa 0,0 l/m 0,0 km/h (0 Bft) NW -1,5 C -0,0 C
08.03.2023 04:00 -0,1 C 90 % 1004 hPa 0,0 l/m 0,0 km/h (0 Bft) NW -1,6 C -0,1 C
08.03.2023 05:00 -0,2 C 90 % 1004 hPa 0,0 l/m 0,0 km/h (0 Bft) NW -1,7 C -0,2 C
08.03.2023 06:00 -0,4 C 90 % 1004 hPa 0,0 l/m 0,0 km/h (0 Bft) NW -1,8 C -0,4 C
08.03.2023 07:00 -0,3 C 90 % 1004 hPa 0,0 l/m 0,0 km/h (0 Bft) NW -1,8 C -0,3 C
08.03.2023 08:00 0,2 C 91 % 1004 hPa 0,0 l/m 0,0 km/h (0 Bft) NW -1,2 C 0,2 C
08.03.2023 09:00 0,9 C 91 % 1004 hPa 0,0 l/m 0,0 km/h (0 Bft) NW -0,4 C 0,9 C
08.03.2023 10:00 1,0 C 91 % 1003 hPa 0,0 l/m 0,0 km/h (0 Bft) NW -0,3 C 1,0 C
08.03.2023 11:00 1,1 C 91 % 1002 hPa 0,0 l/m 0,0 km/h (0 Bft) O-SO -0,2 C 1,1 C
08.03.2023 12:00 1,7 C 91 % 1001 hPa 0,0 l/m 0,0 km/h (0 Bft) SO 0,4 C 1,7 C
08.03.2023 13:00 2,3 C 91 % 1000 hPa 0,5 l/m 0,0 km/h (0 Bft) S-SO 1,0 C 2,3 C
08.03.2023 14:00 2,8 C 91 % 999 hPa 1,6 l/m 0,0 km/h (0 Bft) SO 1,4 C 2,8 C
08.03.2023 15:00 3,0 C 91 % 999 hPa 1,6 l/m 0,0 km/h (0 Bft) SO 1,6 C 3,0 C
08.03.2023 16:00 2,5 C 90 % 998 hPa 1,0 l/m 0,0 km/h (0 Bft) SO 1,0 C 2,5 C
08.03.2023 17:00 1,8 C 90 % 998 hPa 0,5 l/m 0,0 km/h (0 Bft) SO 0,4 C 1,8 C
08.03.2023 18:00 1,4 C 91 % 998 hPa 0,0 l/m 0,0 km/h (0 Bft) O-SO 0,1 C 1,4 C
08.03.2023 19:00 1,5 C 91 % 998 hPa 1,0 l/m 0,0 km/h (0 Bft) O-SO 0,2 C 1,5 C
08.03.2023 20:00 1,5 C 91 % 998 hPa 0,5 l/m 0,0 km/h (0 Bft) O-SO 0,2 C 1,5 C
08.03.2023 21:00 1,5 C 92 % 998 hPa 0,0 l/m 0,0 km/h (0 Bft) O-SO 0,3 C 1,5 C
08.03.2023 22:00 1,4 C 92 % 997 hPa 0,5 l/m 0,0 km/h (0 Bft) O-SO 0,2 C 1,4 C
08.03.2023 23:00 1,4 C 92 % 997 hPa 0,0 l/m 0,0 km/h (0 Bft) O-SO 0,2 C 1,4 C
09.03.2023 00:00 1,4 C 92 % 996 hPa 0,0 l/m 0,0 km/h (0 Bft) O-SO 0,2 C 1,4 C
09.03.2023 01:00 1,3 C 92 % 996 hPa 0,0 l/m 0,0 km/h (0 Bft) N-NO 0,1 C 1,3 C
09.03.2023 02:00 1,1 C 92 % 995 hPa 0,5 l/m 0,4 km/h (0 Bft) N-NO -0,1 C 1,1 C
09.03.2023 03:00 1,1 C 93 % 995 hPa 2,1 l/m 1,3 km/h (1 Bft) N-NO 0,1 C 0,9 C
09.03.2023 04:00 0,8 C 93 % 995 hPa 1,0 l/m 0,0 km/h (0 Bft) O-SO -0,2 C 0,8 C
09.03.2023 05:00 0,8 C 93 % 995 hPa 0,5 l/m 0,0 km/h (0 Bft) O-SO -0,2 C 0,8 C
09.03.2023 06:00 0,8 C 93 % 996 hPa 0,0 l/m 0,0 km/h (0 Bft) NW -0,2 C 0,8 C
09.03.2023 07:00 0,4 C 93 % 998 hPa 0,0 l/m 0,0 km/h (0 Bft) W-NW -0,6 C 0,4 C
09.03.2023 08:00 0,8 C 93 % 999 hPa 0,5 l/m 0,0 km/h (0 Bft) W-NW -0,2 C 0,8 C
09.03.2023 09:00 1,5 C 93 % 1000 hPa 0,0 l/m 0,0 km/h (0 Bft) W-NW 0,5 C 1,5 C
09.03.2023 10:00 2,1 C 94 % 1001 hPa 0,5 l/m 0,0 km/h (0 Bft) W-NW 1,2 C 2,1 C
09.03.2023 11:00 3,8 C 94 % 1002 hPa 0,5 l/m 0,0 km/h (0 Bft) W-NW 2,9 C 3,8 C
09.03.2023 12:00 5,3 C 94 % 1002 hPa 0,0 l/m 0,0 km/h (0 Bft) W-NW 4,4 C 5,3 C
09.03.2023 13:00 6,4 C 94 % 1002 hPa 1,0 l/m 0,0 km/h (0 Bft) W-NW 5,5 C 6,4 C
09.03.2023 14:00 7,2 C 94 % 1002 hPa 0,5 l/m 0,5 km/h (0 Bft) W-NW 6,3 C 7,2 C
09.03.2023 15:00 7,7 C 94 % 1003 hPa 0,5 l/m 0,0 km/h (0 Bft) W-NW 6,8 C 7,7 C
09.03.2023 16:00 7,3 C 94 % 1003 hPa 0,0 l/m 0,0 km/h (0 Bft) W-NW 6,4 C 7,3 C
09.03.2023 17:00 7,1 C 94 % 1003 hPa 0,5 l/m 0,0 km/h (0 Bft) W-NW 6,2 C 7,1 C
09.03.2023 18:00 6,8 C 94 % 1003 hPa 0,5 l/m 0,0 km/h (0 Bft) W-NW 5,9 C 6,8 C
09.03.2023 19:00 7,1 C 94 % 1002 hPa 0,0 l/m 0,0 km/h (0 Bft) W-NW 6,2 C 7,1 C
09.03.2023 20:00 7,1 C 94 % 1002 hPa 0,0 l/m 0,0 km/h (0 Bft) W 6,2 C 7,1 C
09.03.2023 21:00 6,7 C 94 % 1002 hPa 0,0 l/m 0,0 km/h (0 Bft) W 5,8 C 6,7 C
09.03.2023 22:00 6,7 C 94 % 1001 hPa 0,0 l/m 0,0 km/h (0 Bft) W 5,8 C 6,7 C
09.03.2023 23:00 6,5 C 94 % 1000 hPa 0,0 l/m 0,0 km/h (0 Bft) W-NW 5,6 C 6,5 C
10.03.2023 00:00 6,9 C 94 % 999 hPa 0,0 l/m 0,0 km/h (0 Bft) S-SW 6,0 C 6,9 C
10.03.2023 01:00 7,4 C 94 % 998 hPa 0,0 l/m 0,0 km/h (0 Bft) SO 6,5 C 7,4 C
10.03.2023 02:00 7,4 C 93 % 997 hPa 0,0 l/m 1,5 km/h (1 Bft) W-SW 6,4 C 7,1 C
10.03.2023 03:00 8,0 C 91 % 996 hPa 0,0 l/m 0,0 km/h (0 Bft) S 6,6 C 8,0 C
10.03.2023 04:00 8,0 C 88 % 995 hPa 0,0 l/m 0,0 km/h (0 Bft) S-SW 6,1 C 8,0 C
10.03.2023 05:00 8,0 C 88 % 995 hPa 0,0 l/m 0,0 km/h (0 Bft) S-SW 6,1 C 8,0 C
10.03.2023 06:00 8,6 C 87 % 995 hPa 0,0 l/m 1,0 km/h (0 Bft) SW 6,6 C 8,6 C
10.03.2023 07:00 8,9 C 86 % 995 hPa 0,0 l/m 0,0 km/h (0 Bft) SW 6,7 C 8,9 C
10.03.2023 08:00 9,4 C 86 % 995 hPa 0,0 l/m 4,2 km/h (1 Bft) S 7,1 C 8,7 C
10.03.2023 09:00 10,6 C 81 % 995 hPa 0,0 l/m 3,3 km/h (1 Bft) W-NW 7,5 C 10,1 C
10.03.2023 10:00 11,9 C 76 % 995 hPa 0,0 l/m 1,9 km/h (1 Bft) SW 7,8 C 11,7 C
10.03.2023 11:00 11,8 C 75 % 995 hPa 0,0 l/m 0,0 km/h (0 Bft) W 7,4 C 11,8 C
10.03.2023 12:00 12,6 C 74 % 995 hPa 0,0 l/m 1,0 km/h (0 Bft) W-SW 8,0 C 12,6 C
10.03.2023 13:00 11,6 C 74 % 995 hPa 0,0 l/m 0,8 km/h (0 Bft) S 7,1 C 11,6 C
10.03.2023 14:00 10,9 C 75 % 994 hPa 0,0 l/m 0,0 km/h (0 Bft) S 6,7 C 10,9 C
10.03.2023 15:00 12,8 C 70 % 994 hPa 0,0 l/m 1,8 km/h (1 Bft) SW 7,4 C 12,3 C
10.03.2023 16:00 11,6 C 71 % 994 hPa 0,0 l/m 2,1 km/h (1 Bft) O 6,6 C 11,4 C
10.03.2023 17:00 10,6 C 73 % 994 hPa 0,0 l/m 0,0 km/h (0 Bft) SW 5,8 C 10,6 C
10.03.2023 18:00 9,1 C 78 % 994 hPa 0,0 l/m 0,0 km/h (0 Bft) S-SW 5,4 C 9,1 C
10.03.2023 19:00 7,6 C 83 % 994 hPa 0,5 l/m 0,0 km/h (0 Bft) SW 5,0 C 7,6 C
10.03.2023 20:00 6,7 C 87 % 994 hPa 1,6 l/m 0,0 km/h (0 Bft) W 4,7 C 6,7 C
10.03.2023 21:00 5,8 C 88 % 994 hPa 0,5 l/m 0,0 km/h (0 Bft) W-SW 4,0 C 5,8 C
10.03.2023 22:00 4,9 C 88 % 994 hPa 0,5 l/m 5,5 km/h (1 Bft) W-NW 3,1 C 3,1 C
10.03.2023 23:00 2,0 C 86 % 997 hPa 0,0 l/m 8,3 km/h (2 Bft) W-NW -0,1 C 0,0 C
11.03.2023 00:00 0,5 C 89 % 998 hPa 0,0 l/m 10,3 km/h (2 Bft) W-NW -1,2 C -3,7 C
11.03.2023 01:00 0,0 C 90 % 1000 hPa 0,0 l/m 12,0 km/h (2 Bft) W-NW -1,4 C -4,6 C
11.03.2023 02:00 -0,2 C 91 % 1002 hPa 0,0 l/m 12,1 km/h (2 Bft) W-NW -1,5 C -5,0 C
11.03.2023 03:00 -0,2 C 91 % 1004 hPa 0,0 l/m 12,7 km/h (3 Bft) W -1,5 C -5,2 C
11.03.2023 04:00 -0,2 C 90 % 1005 hPa 0,0 l/m 8,6 km/h (2 Bft) W-NW -1,7 C -2,7 C
11.03.2023 05:00 -0,4 C 88 % 1007 hPa 0,0 l/m 7,3 km/h (2 Bft) W-NW -2,1 C -2,7 C
11.03.2023 06:00 -0,5 C 87 % 1008 hPa 0,0 l/m 5,2 km/h (1 Bft) W-NW -2,5 C -1,3 C
11.03.2023 07:00 -0,5 C 86 % 1009 hPa 0,0 l/m 3,3 km/h (1 Bft) W-NW -2,5 C -0,5 C
11.03.2023 08:00 -0,3 C 86 % 1010 hPa 0,0 l/m 1,7 km/h (1 Bft) W-NW -2,4 C -1,0 C
11.03.2023 09:00 0,2 C 86 % 1011 hPa 0,0 l/m 3,5 km/h (1 Bft) W-NW -1,9 C -0,1 C
11.03.2023 10:00 0,9 C 83 % 1011 hPa 0,0 l/m 2,5 km/h (1 Bft) W-NW -1,6 C 0,8 C
11.03.2023 11:00 0,9 C 82 % 1012 hPa 0,0 l/m 0,4 km/h (0 Bft) W-NW -1,9 C 0,9 C
11.03.2023 12:00 0,6 C 83 % 1013 hPa 0,0 l/m 1,7 km/h (1 Bft) W-NW -2,0 C 0,6 C
11.03.2023 13:00 1,2 C 82 % 1013 hPa 0,0 l/m 1,0 km/h (0 Bft) W-NW -1,6 C 1,2 C
11.03.2023 14:00 2,1 C 79 % 1014 hPa 0,0 l/m 0,7 km/h (0 Bft) W-NW -1,2 C 2,1 C
11.03.2023 15:00 2,5 C 74 % 1014 hPa 0,0 l/m 2,3 km/h (1 Bft) W-NW -1,6 C 2,0 C
11.03.2023 16:00 2,9 C 72 % 1014 hPa 0,0 l/m 0,0 km/h (0 Bft) W-NW -1,7 C 2,9 C
11.03.2023 17:00 2,0 C 72 % 1015 hPa 0,0 l/m 0,0 km/h (0 Bft) W-NW -2,4 C 2,0 C
11.03.2023 18:00 0,7 C 75 % 1015 hPa 0,0 l/m 0,0 km/h (0 Bft) NW -3,3 C 0,7 C
11.03.2023 19:00 -0,4 C 76 % 1016 hPa 0,0 l/m 0,0 km/h (0 Bft) NW -4,2 C -0,4 C
11.03.2023 20:00 -1,4 C 78 % 1016 hPa 0,0 l/m 0,0 km/h (0 Bft) NW -4,8 C -1,4 C
11.03.2023 21:00 -1,9 C 80 % 1016 hPa 0,0 l/m 0,0 km/h (0 Bft) W-NW -5,0 C -1,9 C
11.03.2023 22:00 -2,4 C 81 % 1017 hPa 0,0 l/m 0,0 km/h (0 Bft) W-NW -5,3 C -2,4 C
11.03.2023 23:00 -2,4 C 82 % 1017 hPa 0,0 l/m 0,0 km/h (0 Bft) W-NW -5,0 C -2,4 C
12.03.2023 00:00 -3,0 C 82 % 1017 hPa 0,0 l/m 0,0 km/h (0 Bft) W -5,6 C -3,0 C
12.03.2023 01:00 -3,4 C 83 % 1017 hPa 0,0 l/m 0,0 km/h (0 Bft) W -5,9 C -3,4 C
12.03.2023 02:00 -3,6 C 83 % 1017 hPa 0,0 l/m 0,0 km/h (0 Bft) S -6,1 C -3,6 C
12.03.2023 03:00 -3,8 C 83 % 1017 hPa 0,0 l/m 0,0 km/h (0 Bft) S -6,2 C -3,8 C
12.03.2023 04:00 -4,0 C 84 % 1017 hPa 0,0 l/m 0,0 km/h (0 Bft) S-SO -6,2 C -4,0 C
12.03.2023 05:00 -4,0 C 85 % 1018 hPa 0,0 l/m 0,0 km/h (0 Bft) S-SO -6,2 C -4,0 C
12.03.2023 06:00 -3,5 C 85 % 1018 hPa 0,0 l/m 0,0 km/h (0 Bft) S-SO -5,6 C -3,5 C
12.03.2023 07:00 -2,8 C 85 % 1017 hPa 0,0 l/m 0,0 km/h (0 Bft) S -5,0 C -2,8 C
12.03.2023 08:00 -1,6 C 84 % 1017 hPa 0,0 l/m 0,0 km/h (0 Bft) S -3,9 C -1,6 C
12.03.2023 09:00 0,5 C 82 % 1017 hPa 0,0 l/m 0,0 km/h (0 Bft) S-SW -2,3 C 0,5 C
12.03.2023 10:00 3,4 C 75 % 1016 hPa 0,0 l/m 0,0 km/h (0 Bft) S-SO -0,6 C 3,4 C
12.03.2023 11:00 4,9 C 69 % 1016 hPa 0,0 l/m 0,0 km/h (0 Bft) S-SO -0,4 C 4,9 C
12.03.2023 12:00 5,5 C 66 % 1016 hPa 0,0 l/m 0,2 km/h (0 Bft) S-SO -0,4 C 5,5 C
12.03.2023 13:00 4,9 C 67 % 1015 hPa 0,0 l/m 0,4 km/h (0 Bft) SW -0,6 C 4,9 C
12.03.2023 14:00 4,7 C 72 % 1014 hPa 0,0 l/m 0,4 km/h (0 Bft) W 0,2 C 4,7 C
12.03.2023 15:00 4,9 C 74 % 1014 hPa 0,0 l/m 0,0 km/h (0 Bft) W-SW 0,7 C 4,9 C
12.03.2023 16:00 4,7 C 78 % 1014 hPa 0,0 l/m 0,0 km/h (0 Bft) SW 1,1 C 4,7 C
12.03.2023 17:00 4,9 C 81 % 1014 hPa 0,0 l/m 0,4 km/h (0 Bft) W 1,8 C 4,9 C
12.03.2023 18:00 5,0 C 83 % 1014 hPa 0,0 l/m 0,0 km/h (0 Bft) W-SW 2,3 C 5,0 C
12.03.2023 19:00 5,2 C 84 % 1014 hPa 0,0 l/m 0,3 km/h (0 Bft) W 2,8 C 5,2 C
12.03.2023 20:00 5,8 C 85 % 1014 hPa 0,0 l/m 1,1 km/h (1 Bft) W 3,5 C 5,8 C
12.03.2023 21:00 6,3 C 86 % 1015 hPa 0,0 l/m 0,0 km/h (0 Bft) S-SW 4,2 C 6,3 C
12.03.2023 22:00 6,6 C 86 % 1014 hPa 0,0 l/m 0,0 km/h (0 Bft) W 4,4 C 6,6 C
12.03.2023 23:00 6,9 C 86 % 1014 hPa 0,0 l/m 0,0 km/h (0 Bft) W-SW 4,7 C 6,9 C
Min-Datum _ 12.03.23 12.03.23 10.03.23 - 12.03.23 - 12.03.23 11.03.23
_ Min-Zeit 05:03 12:33 22:03 - 23:03 - 05:03 03:03
Minimum _ -4,1 C 64 % 994 hPa - 0,0 km/h (0 Bft) - -6,4 C -10,8 C
Max-Datum _ 10.03.23 10.03.23 12.03.23 09.03.23 11.03.23 - 10.03.23 10.03.23
_ Max-Zeit 12:33 02:03 08:03 03:23 03:03 - 12:23 12:33
Maximum _ 13,1 C 94 % 1018 hPa 2,1 l/m 22,0 km/h
W (4 Bft)
- 8,5 C 13,1 C
Durchschnitt _ 3,0 C 85 % 1004 hPa #19,2 l/m 1,0 km/h (0 Bft) W-NW 0,7 C 2,7 C